Aérodrome :
LOGIN :

S'inscrire | Disclaimer

   EN    FR    IT 

 










Légende :    VFR   VFR Marginal   IFR   IFR Intensif   IFR Très Intensif
Visi : 
Plafond : 
>= 8 km
>= 3000ft
5 à 8 km
1000 à 3000 ft
1500m à 5 km
500 à 1000 ft
800 à 1500m
200 à 500 ft
< 800m
< 200 ft
Symboles :   Orages  Brouillard  Fortes neiges  Fortes précipitations  Vent > 20 kt
SIGMETs :   Divers  Orages  Givrage  Turbulence  Onde Orograph.  Cendres Volcan.







- Altitude de l'aérodrome : 84 ft
- Voir les cartes d'approche


LFBC - Cazaux

DERNIER METAR :
  • 220430Z AUTO 03001KT CAVOK 08/07 Q1006

METARs EXPIRÉS :
  • 220400Z AUTO 05004KT 020V080 CAVOK 09/08 Q1006
  • 220330Z AUTO 34003KT CAVOK 08/07 Q1007
  • 220300Z AUTO 36004KT CAVOK 08/07 Q1007
  • 220230Z AUTO 02004KT CAVOK 09/07 Q1007
  • 220200Z AUTO 36003KT CAVOK 09/07 Q1008

Prévision TAF périmée.
Pas de NOTAMs connus pour ce terrain.



MET'MAP, la Météo Aéronautique d'un coup d'oeil ! - Copyright ORBIFLY Décembre 2007 - Disclaimer

ORBIFLY MET'MAP TEAM :

Programmation & Développement : Alexandra Zaïnal
Conception & Développement : Baudouin d'Aumeries
Co-Programmation & Développement : Marc-Olivier Méhu
Soutien technique & logistique : Manuel Goepfert

Contact : metmap@orbifly.com




SOURCES & CREDITS :

   NOAA